createdAt,value
2022-09-23T03:12:52.984Z,6.58
2022-09-23T03:16:10.430Z,6.58
2022-09-23T03:19:33.846Z,5.87
2022-09-23T03:23:10.600Z,5.99
2022-09-23T03:26:19.623Z,6.22
2022-09-23T03:29:23.498Z,6.25
2022-09-23T03:32:27.933Z,6.25
2022-09-23T03:35:33.871Z,6.25
2022-09-23T03:38:39.295Z,6.28
2022-09-23T03:41:50.760Z,6.04
2022-09-23T03:44:56.322Z,6.24
2022-09-23T03:47:58.671Z,6.25
2022-09-23T03:51:18.060Z,6.07
2022-09-23T03:54:20.622Z,5.94
2022-09-23T03:57:22.856Z,5.96
2022-09-23T04:00:25.172Z,5.99
2022-09-23T04:03:28.042Z,5.97
2022-09-23T04:06:30.077Z,5.92
2022-09-23T04:09:32.567Z,5.87
2022-09-23T04:12:35.015Z,5.82
2022-09-23T04:15:37.936Z,6.03
2022-09-23T04:18:39.991Z,6.22
2022-09-23T04:21:43.654Z,6.23
2022-09-23T04:24:45.734Z,6.22
2022-09-23T04:27:48.115Z,6.11
2022-09-23T04:30:51.127Z,5.97
2022-09-23T04:33:53.630Z,5.87
2022-09-23T04:36:55.713Z,6.01
2022-09-23T04:39:58.101Z,6.15
2022-09-23T04:43:00.178Z,6.19
2022-09-23T04:46:05.070Z,6.28
2022-09-23T04:49:08.097Z,6.43
2022-09-23T04:52:10.573Z,6.45
2022-09-23T04:55:12.625Z,6.42
2022-09-23T04:58:14.966Z,6.35
2022-09-23T05:01:20.204Z,6.44
2022-09-23T05:04:22.777Z,6.46
2022-09-23T05:07:25.112Z,6.59
2022-09-23T05:10:27.403Z,6.42
2022-09-23T05:13:29.455Z,6.22
2022-09-23T05:16:31.827Z,6.20
2022-09-23T05:19:33.893Z,6.43
2022-09-23T05:22:36.363Z,6.52
2022-09-23T05:25:38.616Z,6.60
2022-09-23T05:28:40.939Z,6.79
2022-09-23T05:31:43.064Z,7.04
2022-09-23T05:34:45.685Z,7.00
2022-09-23T05:37:47.721Z,6.92
2022-09-23T05:40:57.573Z,7.02
2022-09-23T05:43:59.866Z,7.18
2022-09-23T05:47:02.712Z,7.43
2022-09-23T05:50:05.211Z,7.74
2022-09-23T05:53:07.533Z,8.16
2022-09-23T05:56:09.632Z,8.63
2022-09-23T05:59:12.225Z,9.01
2022-09-23T06:02:15.063Z,9.60
2022-09-23T06:05:17.482Z,10.22
2022-09-23T06:08:19.643Z,10.68
2022-09-23T06:11:22.049Z,11.20
2022-09-23T06:14:24.425Z,11.67
2022-09-23T06:17:26.793Z,12.07
2022-09-23T06:20:29.352Z,12.45
2022-09-23T06:23:32.652Z,12.66
2022-09-23T06:26:37.638Z,12.91
2022-09-23T06:29:40.047Z,13.28
2022-09-23T06:32:42.312Z,13.51
2022-09-23T06:35:53.385Z,13.57
2022-09-23T06:38:59.062Z,13.90
2022-09-23T06:42:01.658Z,14.03
2022-09-23T06:45:04.051Z,14.03
2022-09-23T06:48:08.378Z,14.23
2022-09-23T06:51:18.982Z,14.38
2022-09-23T06:54:21.379Z,14.38
2022-09-23T06:57:24.412Z,14.17
2022-09-23T07:00:26.963Z,14.12
2022-09-23T07:03:29.464Z,13.92
2022-09-23T07:06:31.862Z,14.15
2022-09-23T07:09:34.108Z,13.93
2022-09-23T07:12:37.082Z,13.62
2022-09-23T07:15:39.229Z,13.45
2022-09-23T07:18:42.758Z,13.35
2022-09-23T07:21:44.887Z,13.14
2022-09-23T07:24:47.394Z,13.44
2022-09-23T07:27:49.452Z,13.52
2022-09-23T07:31:00.057Z,13.62
2022-09-23T07:34:02.879Z,13.75
2022-09-23T07:37:05.348Z,13.81
2022-09-23T07:40:07.960Z,13.71
2022-09-23T07:43:10.334Z,13.82
2022-09-23T07:46:16.334Z,14.11
2022-09-23T07:49:18.713Z,13.96
2022-09-23T07:52:20.689Z,13.85
2022-09-23T07:55:23.007Z,13.86
2022-09-23T07:58:26.298Z,14.13
2022-09-23T08:01:39.932Z,14.41
2022-09-23T08:04:42.621Z,14.41
2022-09-23T08:07:44.690Z,14.21
2022-09-23T08:10:47.055Z,14.09
2022-09-23T08:13:49.111Z,14.14
2022-09-23T08:16:52.221Z,14.37
2022-09-23T08:19:54.266Z,14.46
2022-09-23T08:22:56.595Z,14.29
2022-09-23T08:26:00.926Z,14.39
2022-09-23T08:29:04.110Z,14.71
2022-09-23T08:32:06.750Z,14.66
2022-09-23T08:35:09.359Z,14.55
2022-09-23T08:38:11.426Z,14.46
2022-09-23T08:41:20.143Z,14.51
2022-09-23T08:44:31.306Z,14.70
2022-09-23T08:47:50.464Z,14.69
2022-09-23T08:50:58.738Z,14.66
2022-09-23T08:54:01.228Z,15.04
2022-09-23T08:57:05.368Z,15.14
2022-09-23T09:00:15.768Z,14.91
2022-09-23T09:03:24.705Z,15.22
2022-09-23T09:06:51.775Z,15.12
2022-09-23T09:10:03.379Z,15.65
2022-09-23T09:13:11.029Z,15.78
2022-09-23T09:16:58.411Z,15.56
2022-09-23T09:20:18.741Z,15.51
2022-09-23T09:23:37.423Z,15.57
2022-09-23T09:26:40.271Z,15.41
2022-09-23T09:29:49.767Z,15.58
2022-09-23T09:33:02.218Z,16.40
2022-09-23T09:36:14.590Z,16.41
2022-09-23T09:39:17.386Z,16.27
2022-09-23T09:42:40.328Z,16.69
2022-09-23T09:46:22.718Z,16.98
2022-09-23T09:49:40.312Z,17.30
2022-09-23T09:52:43.080Z,17.24
2022-09-23T09:55:48.322Z,17.49
2022-09-23T09:58:54.862Z,17.33
2022-09-23T10:02:13.835Z,17.25
2022-09-23T10:05:30.042Z,17.16
2022-09-23T10:08:35.184Z,17.25
2022-09-23T10:11:38.703Z,17.96
2022-09-23T10:14:43.597Z,17.86
2022-09-23T10:17:50.223Z,18.18
2022-09-23T10:20:52.465Z,18.47
2022-09-23T10:24:01.555Z,18.82
2022-09-23T10:27:11.909Z,19.11
2022-09-23T10:30:23.721Z,19.66
2022-09-23T10:33:27.848Z,19.53
2022-09-23T10:36:33.226Z,19.17
2022-09-23T10:39:54.215Z,18.49
2022-09-23T10:43:29.871Z,18.10
2022-09-23T10:46:47.039Z,17.93
2022-09-23T10:50:14.886Z,17.69
2022-09-23T10:53:35.389Z,17.94
2022-09-23T10:56:46.407Z,17.30
2022-09-23T11:00:10.947Z,17.48
2022-09-23T11:03:19.129Z,17.25
2022-09-23T11:06:27.112Z,16.82
2022-09-23T11:10:01.113Z,17.24
2022-09-23T11:13:19.556Z,17.05
2022-09-23T11:16:36.132Z,19.30
2022-09-23T11:20:21.398Z,19.00
2022-09-23T11:23:37.656Z,17.79
2022-09-23T11:26:59.765Z,20.28
2022-09-23T11:30:14.051Z,24.11
2022-09-23T11:33:31.409Z,23.89
2022-09-23T11:36:42.411Z,21.81
2022-09-23T11:40:02.158Z,22.29
2022-09-23T11:43:23.371Z,20.72
2022-09-23T11:46:42.814Z,19.16
2022-09-23T11:49:59.163Z,18.42
2022-09-23T11:53:08.869Z,17.86
2022-09-23T11:56:30.307Z,17.46
2022-09-23T11:59:51.183Z,17.35
2022-09-23T12:03:12.312Z,17.10
2022-09-23T12:06:21.251Z,16.92
2022-09-23T12:09:57.294Z,16.74
2022-09-23T12:13:10.419Z,16.51
2022-09-23T12:16:21.749Z,16.22
2022-09-23T12:19:30.870Z,16.01
2022-09-23T12:22:56.774Z,16.02
2022-09-23T12:26:02.765Z,16.47
2022-09-23T12:29:06.131Z,16.61
2022-09-23T12:32:17.536Z,16.27
2022-09-23T12:35:32.098Z,16.04
2022-09-23T12:38:57.636Z,16.08
2022-09-23T12:42:08.195Z,16.09
2022-09-23T12:45:35.006Z,16.36
2022-09-23T12:48:46.126Z,16.90
2022-09-23T12:52:28.013Z,17.36
2022-09-23T12:55:33.164Z,17.33
2022-09-23T12:58:56.745Z,17.31
2022-09-23T13:02:36.439Z,17.08
2022-09-23T13:06:02.238Z,17.00
2022-09-23T13:09:13.304Z,16.82
2022-09-23T13:12:21.388Z,16.76
2022-09-23T13:15:30.865Z,16.45
2022-09-23T13:19:03.087Z,16.63
2022-09-23T13:22:10.995Z,17.41
2022-09-23T13:25:21.504Z,17.61
2022-09-23T13:28:28.259Z,17.81
2022-09-23T13:31:30.861Z,17.98
2022-09-23T13:34:34.885Z,17.81
2022-09-23T13:37:37.115Z,17.62
2022-09-23T13:40:41.803Z,17.56
2022-09-23T13:43:48.947Z,17.26
2022-09-23T13:46:55.172Z,17.27
2022-09-23T13:49:57.906Z,17.35
2022-09-23T13:53:02.723Z,17.30
2022-09-23T13:56:06.582Z,17.33
2022-09-23T13:59:29.188Z,17.27
2022-09-23T14:02:31.589Z,17.09
2022-09-23T14:05:35.652Z,17.04
2022-09-23T14:08:45.370Z,17.12
2022-09-23T14:11:50.518Z,16.95
2022-09-23T14:14:52.880Z,16.85
2022-09-23T14:18:02.848Z,16.78
2022-09-23T14:21:05.662Z,16.59
2022-09-23T14:24:11.003Z,16.62
2022-09-23T14:27:15.974Z,16.51
2022-09-23T14:30:18.918Z,16.53
2022-09-23T14:33:47.016Z,16.42
2022-09-23T14:37:21.530Z,16.34
2022-09-23T14:40:35.917Z,16.41
2022-09-23T14:43:38.375Z,16.31
2022-09-23T14:46:40.928Z,16.35
2022-09-23T14:50:10.918Z,16.45
2022-09-23T14:53:22.467Z,16.65
2022-09-23T14:56:25.394Z,16.94
2022-09-23T14:59:37.266Z,17.12
2022-09-23T15:02:43.247Z,17.14
2022-09-23T15:05:47.830Z,17.18
2022-09-23T15:08:52.145Z,17.22
2022-09-23T15:12:00.435Z,17.26
2022-09-23T15:15:02.902Z,17.38
